Time;durP1;ratioP1;P1;durP2;ratioP2;P2;SDS_P1;SDS_P2;PMS_P1;PMS_P2;Temp;Humidity;BMP_temperature;BMP_pressure;BME280_temperature;BME280_humidity;BME280_pressure;Samples;Min_cycle;Max_cycle;Signal;HPM_P1;HPM_P2
2023/04/27 00:00:57;;;;;;;8.68;7.40;;;4.30;99.90;;;;;;5034300;28;20234;-80
2023/04/27 00:03:24;;;;;;;10.68;8.40;;;4.30;99.90;;;;;;5032065;28;20216;-82
2023/04/27 00:05:52;;;;;;;9.52;8.27;;;4.30;99.90;;;;;;4997250;28;20217;-82
2023/04/27 00:08:20;;;;;;;11.57;8.15;;;4.40;99.90;;;;;;5023325;28;20796;-80
2023/04/27 00:10:48;;;;;;;11.73;7.45;;;4.20;99.90;;;;;;5031478;28;20212;-80
2023/04/27 00:13:14;;;;;;;21.05;7.72;;;4.10;99.90;;;;;;5023369;28;20244;-79
2023/04/27 00:15:44;;;;;;;10.98;8.23;;;4.30;99.90;;;;;;5011897;28;20227;-79
2023/04/27 00:18:11;;;;;;;12.65;8.48;;;4.20;99.90;;;;;;5032529;28;20217;-79
2023/04/27 00:20:39;;;;;;;16.60;10.00;;;4.20;99.90;;;;;;5022939;28;20217;-82
2023/04/27 00:23:06;;;;;;;9.02;7.70;;;4.20;99.90;;;;;;5026860;28;20250;-79
2023/04/27 00:25:33;;;;;;;12.05;8.23;;;4.10;99.90;;;;;;5030543;28;20215;-84
2023/04/27 00:28:00;;;;;;;13.73;8.60;;;4.10;99.90;;;;;;5035092;28;20753;-84
2023/04/27 00:30:27;;;;;;;10.20;8.00;;;4.90;99.90;;;;;;5037763;28;20510;-80
2023/04/27 00:32:53;;;;;;;11.77;7.43;;;4.00;99.90;;;;;;5026426;28;20200;-83
2023/04/27 00:35:21;;;;;;;12.15;9.00;;;4.10;99.90;;;;;;5030745;28;20648;-80
2023/04/27 00:37:48;;;;;;;12.45;9.13;;;3.90;99.90;;;;;;5032296;28;20584;-79
2023/04/27 00:40:15;;;;;;;17.25;9.63;;;4.00;99.90;;;;;;5032160;28;20555;-80
2023/04/27 00:42:42;;;;;;;10.50;7.97;;;4.00;99.90;;;;;;5024850;28;20211;-83
2023/04/27 00:45:10;;;;;;;13.38;9.25;;;3.90;99.90;;;;;;5034347;28;20237;-83
2023/04/27 00:47:37;;;;;;;11.65;9.13;;;3.90;99.90;;;;;;5029867;28;20279;-81
2023/04/27 00:50:07;;;;;;;13.27;9.52;;;3.90;99.90;;;;;;5028194;28;20206;-81
2023/04/27 00:52:36;;;;;;;11.90;9.30;;;3.80;99.90;;;;;;5035863;28;20553;-83
2023/04/27 00:55:04;;;;;;;11.98;8.20;;;3.70;99.90;;;;;;5030510;28;20269;-82
2023/04/27 00:57:35;;;;;;;14.45;8.63;;;3.70;99.90;;;;;;5026791;28;20228;-83
2023/04/27 01:00:06;;;;;;;12.30;9.57;;;3.80;99.90;;;;;;5018942;28;20210;-81
2023/04/27 01:02:34;;;;;;;13.50;9.70;;;3.80;99.90;;;;;;5029829;28;20229;-81
2023/04/27 01:05:02;;;;;;;14.52;9.30;;;3.80;99.90;;;;;;5011385;28;20212;-89
2023/04/27 01:07:30;;;;;;;14.15;8.10;;;3.70;99.90;;;;;;5018757;28;20267;-89
2023/04/27 01:09:57;;;;;;;11.80;10.43;;;3.70;99.90;;;;;;5028460;28;20214;-89
2023/04/27 01:12:25;;;;;;;18.30;10.30;;;3.70;99.90;;;;;;5042662;28;20306;-88
2023/04/27 01:14:52;;;;;;;14.57;9.93;;;3.70;99.90;;;;;;5046318;28;20222;-85
2023/04/27 01:17:20;;;;;;;16.77;9.63;;;3.60;99.90;;;;;;5038950;28;20247;-82
2023/04/27 01:19:48;;;;;;;14.00;9.70;;;3.60;99.90;;;;;;5025703;28;20202;-81
2023/04/27 01:22:18;;;;;;;24.67;10.82;;;3.50;99.90;;;;;;5027138;28;20347;-84
2023/04/27 01:24:45;;;;;;;16.83;9.13;;;3.60;99.90;;;;;;5020173;28;20219;-83
2023/04/27 01:27:15;;;;;;;16.55;11.25;;;3.60;99.90;;;;;;5030420;28;20561;-83
2023/04/27 01:29:43;;;;;;;11.52;9.95;;;3.50;99.90;;;;;;5013454;28;20214;-81
2023/04/27 01:32:11;;;;;;;19.33;11.68;;;3.50;99.90;;;;;;5027446;28;20250;-81
2023/04/27 01:34:39;;;;;;;21.45;10.40;;;3.50;99.90;;;;;;5027224;28;20615;-81
2023/04/27 01:37:07;;;;;;;17.83;11.40;;;3.50;99.90;;;;;;5037265;28;20397;-79
2023/04/27 01:39:34;;;;;;;18.58;11.52;;;3.50;99.90;;;;;;5014984;28;20229;-80
2023/04/27 01:42:04;;;;;;;14.27;9.95;;;3.40;99.90;;;;;;5031325;28;20206;-81
2023/04/27 01:44:32;;;;;;;21.50;10.35;;;3.30;99.90;;;;;;5042077;28;20406;-86
2023/04/27 01:46:58;;;;;;;13.23;9.88;;;3.40;99.90;;;;;;5026507;28;20213;-79
2023/04/27 01:49:25;;;;;;;16.50;9.55;;;3.30;99.90;;;;;;5036089;28;20203;-80
2023/04/27 01:51:55;;;;;;;12.30;9.05;;;3.40;99.90;;;;;;5022919;28;20680;-80
2023/04/27 01:54:22;;;;;;;23.30;10.05;;;3.40;99.90;;;;;;5026044;28;20220;-81
2023/04/27 01:56:49;;;;;;;21.23;9.95;;;3.50;99.90;;;;;;5024021;28;20214;-83
2023/04/27 01:59:17;;;;;;;24.17;10.82;;;3.40;99.90;;;;;;5035367;28;20207;-82
2023/04/27 02:01:45;;;;;;;13.00;9.07;;;3.40;99.90;;;;;;5034602;28;20203;-80
2023/04/27 02:04:12;;;;;;;15.38;9.25;;;3.40;99.90;;;;;;5021603;28;20251;-81
2023/04/27 02:06:42;;;;;;;8.52;7.40;;;3.50;99.90;;;;;;5004453;28;20224;-82
2023/04/27 02:09:08;;;;;;;11.90;7.07;;;3.30;99.90;;;;;;5016865;28;20215;-83
2023/04/27 02:11:35;;;;;;;15.80;7.63;;;3.40;99.90;;;;;;5024258;28;20249;-81
2023/04/27 02:14:02;;;;;;;11.57;8.27;;;3.40;99.90;;;;;;5023723;28;20232;-83
2023/04/27 02:16:30;;;;;;;19.27;9.75;;;3.50;99.90;;;;;;5034641;28;20260;-83
2023/04/27 02:18:57;;;;;;;14.65;9.07;;;3.40;99.90;;;;;;5029512;28;20210;-80
2023/04/27 02:21:27;;;;;;;16.92;8.65;;;3.90;99.90;;;;;;5010045;28;20563;-80
2023/04/27 02:23:54;;;;;;;10.85;7.70;;;3.30;99.90;;;;;;5028329;28;20408;-85
2023/04/27 02:26:27;;;;;;;16.25;7.85;;;3.30;99.90;;;;;;5034228;28;20210;-82
2023/04/27 02:28:58;;;;;;;18.60;9.63;;;3.30;99.90;;;;;;5026570;28;20199;-81
2023/04/27 02:31:25;;;;;;;11.88;7.95;;;3.40;99.90;;;;;;5020728;28;20203;-82
2023/04/27 02:33:53;;;;;;;10.32;8.52;;;3.40;99.90;;;;;;5028521;28;20234;-83
2023/04/27 02:36:22;;;;;;;13.88;8.65;;;3.40;99.90;;;;;;5021842;28;20282;-82
2023/04/27 02:38:49;;;;;;;8.55;7.65;;;3.50;99.90;;;;;;5040136;28;20203;-83
2023/04/27 02:41:17;;;;;;;9.95;7.35;;;3.40;99.90;;;;;;5022668;28;20212;-82
2023/04/27 02:43:46;;;;;;;11.32;8.75;;;3.40;99.90;;;;;;5023088;28;20210;-81
2023/04/27 02:46:13;;;;;;;7.47;6.68;;;3.40;99.90;;;;;;5034812;28;20520;-81
2023/04/27 02:48:40;;;;;;;12.25;7.85;;;3.40;99.90;;;;;;5029575;28;20215;-83
2023/04/27 02:51:09;;;;;;;9.65;7.97;;;3.40;99.90;;;;;;5028187;28;20225;-83
2023/04/27 02:53:37;;;;;;;9.38;6.80;;;3.40;99.90;;;;;;5021252;28;20251;-82
2023/04/27 02:56:04;;;;;;;12.73;8.45;;;3.40;99.90;;;;;;5034974;28;20239;-81
2023/04/27 02:58:31;;;;;;;10.90;7.40;;;3.40;99.90;;;;;;5032485;28;20208;-82
2023/04/27 03:00:58;;;;;;;12.90;7.45;;;3.30;99.90;;;;;;5036106;28;20207;-80
2023/04/27 03:03:27;;;;;;;9.20;6.47;;;3.30;99.90;;;;;;5035109;28;20253;-82
2023/04/27 03:05:54;;;;;;;10.35;6.55;;;3.30;99.90;;;;;;5026549;28;20393;-79
2023/04/27 03:08:21;;;;;;;12.70;8.25;;;3.40;99.90;;;;;;5020902;28;20215;-81
2023/04/27 03:10:50;;;;;;;12.80;7.20;;;3.30;99.90;;;;;;5020995;28;20207;-86
2023/04/27 03:13:18;;;;;;;8.98;6.68;;;3.20;99.90;;;;;;5027182;28;20376;-87
2023/04/27 03:15:45;;;;;;;7.15;6.43;;;3.30;99.90;;;;;;5015309;28;20219;-81
2023/04/27 03:18:15;;;;;;;12.30;9.45;;;3.30;99.90;;;;;;5020152;28;20207;-82
2023/04/27 03:20:43;;;;;;;8.05;6.07;;;3.30;99.90;;;;;;5027375;28;20204;-81
2023/04/27 03:23:10;;;;;;;12.88;7.43;;;3.20;99.90;;;;;;5010780;28;20388;-82
2023/04/27 03:25:38;;;;;;;10.48;7.45;;;3.10;99.90;;;;;;5022972;28;20219;-84
2023/04/27 03:28:05;;;;;;;11.73;6.57;;;3.10;99.90;;;;;;5032757;28;20375;-84
2023/04/27 03:30:32;;;;;;;16.13;9.00;;;3.20;99.90;;;;;;5011080;28;20211;-82
2023/04/27 03:32:59;;;;;;;13.90;7.30;;;3.20;99.90;;;;;;5031366;28;20199;-81
2023/04/27 03:35:26;;;;;;;10.93;7.93;;;3.20;99.90;;;;;;5027870;28;20239;-81
2023/04/27 03:37:53;;;;;;;12.68;7.78;;;3.00;99.90;;;;;;5029197;28;20251;-83
2023/04/27 03:40:21;;;;;;;20.15;7.70;;;3.00;99.90;;;;;;5022711;28;20218;-84
2023/04/27 03:42:47;;;;;;;15.02;8.30;;;3.00;99.90;;;;;;5011685;28;20205;-80
2023/04/27 03:45:15;;;;;;;19.38;8.63;;;3.00;99.90;;;;;;5030375;28;20210;-81
2023/04/27 03:47:45;;;;;;;16.02;7.88;;;3.10;99.90;;;;;;5024752;28;20208;-83
2023/04/27 03:50:15;;;;;;;12.48;7.43;;;3.10;99.90;;;;;;5026591;28;20212;-82
2023/04/27 03:52:44;;;;;;;12.00;7.25;;;4.00;99.90;;;;;;5020444;28;20266;-81
2023/04/27 03:55:11;;;;;;;15.07;8.55;;;3.20;99.90;;;;;;5009116;28;20314;-82
2023/04/27 03:57:38;;;;;;;14.18;7.38;;;3.40;99.90;;;;;;5020756;28;20523;-78
2023/04/27 04:00:10;;;;;;;13.70;8.35;;;3.40;99.90;;;;;;5018946;28;20210;-79
2023/04/27 04:02:38;;;;;;;12.43;6.97;;;3.60;99.90;;;;;;5024387;28;20207;-81
2023/04/27 04:05:05;;;;;;;8.45;6.53;;;3.80;99.90;;;;;;5023157;28;20204;-80
2023/04/27 04:07:32;;;;;;;10.10;7.50;;;4.00;99.90;;;;;;5024256;28;20385;-81
2023/04/27 04:10:00;;;;;;;10.70;8.98;;;4.30;99.90;;;;;;5033392;28;20254;-83
2023/04/27 04:12:28;;;;;;;12.68;8.98;;;5.60;99.90;;;;;;5031005;28;20243;-81
2023/04/27 04:14:55;;;;;;;11.48;6.60;;;4.80;99.90;;;;;;5041262;28;20228;-79
2023/04/27 04:17:23;;;;;;;12.80;7.18;;;5.00;99.90;;;;;;5021599;28;20274;-79
2023/04/27 04:19:50;;;;;;;10.90;7.93;;;5.10;99.90;;;;;;5033077;28;20204;-79
2023/04/27 04:22:17;;;;;;;7.70;6.90;;;5.00;99.90;;;;;;5025849;28;20208;-79
2023/04/27 04:24:44;;;;;;;8.60;5.70;;;5.00;99.90;;;;;;5033891;28;20216;-79
2023/04/27 04:27:11;;;;;;;12.75;6.75;;;5.10;99.90;;;;;;5042174;28;20236;-78
2023/04/27 04:29:38;;;;;;;7.22;5.68;;;5.10;99.90;;;;;;5034669;28;20208;-78
2023/04/27 04:32:06;;;;;;;6.30;5.70;;;5.20;99.90;;;;;;5033986;28;20225;-79
2023/04/27 04:34:33;;;;;;;9.65;5.97;;;5.20;99.90;;;;;;5034959;28;20231;-81
2023/04/27 04:37:03;;;;;;;10.30;6.30;;;5.20;99.90;;;;;;5034340;28;20211;-79
2023/04/27 04:39:32;;;;;;;6.53;5.75;;;5.40;99.90;;;;;;5040317;28;20235;-79
2023/04/27 04:41:58;;;;;;;9.10;5.95;;;5.20;99.90;;;;;;5026291;28;20500;-79
2023/04/27 04:44:25;;;;;;;12.40;6.30;;;5.20;99.90;;;;;;5024205;28;20212;-79
2023/04/27 04:46:52;;;;;;;11.30;5.88;;;5.40;99.90;;;;;;5034806;28;20451;-82
2023/04/27 04:49:19;;;;;;;10.43;8.45;;;5.40;99.90;;;;;;5036831;28;20227;-79
2023/04/27 04:51:46;;;;;;;6.50;5.43;;;5.60;99.90;;;;;;5034046;28;20232;-79
2023/04/27 04:54:13;;;;;;;7.93;6.40;;;5.90;99.90;;;;;;5038703;28;20299;-80
2023/04/27 04:56:40;;;;;;;7.68;4.95;;;6.00;99.90;;;;;;5033645;28;20201;-81
2023/04/27 04:59:07;;;;;;;7.45;4.93;;;6.10;99.90;;;;;;5034837;28;20212;-81
2023/04/27 05:01:35;;;;;;;7.22;5.78;;;6.20;99.90;;;;;;5033763;28;20548;-80
2023/04/27 05:04:02;;;;;;;9.55;6.43;;;6.30;99.90;;;;;;5029262;28;20212;-83
2023/04/27 05:06:29;;;;;;;14.57;5.68;;;7.30;99.90;;;;;;5026873;28;20719;-82
2023/04/27 05:08:56;;;;;;;10.13;5.72;;;6.70;99.90;;;;;;5009855;28;20564;-79
2023/04/27 05:11:22;;;;;;;17.23;6.85;;;6.90;99.90;;;;;;5018871;28;20481;-80
2023/04/27 05:13:49;;;;;;;7.47;5.95;;;7.80;99.90;;;;;;5018799;28;20217;-81
2023/04/27 05:16:16;;;;;;;12.30;6.90;;;8.20;99.90;;;;;;5035493;28;20220;-82
2023/04/27 05:18:43;;;;;;;9.13;6.40;;;7.30;99.90;;;;;;5027247;28;20426;-83
2023/04/27 05:21:19;;;;;;;7.68;5.72;;;7.30;99.90;;;;;;5030509;28;20213;-81
2023/04/27 05:23:46;;;;;;;7.50;5.90;;;7.40;99.90;;;;;;5019331;28;20219;-83
2023/04/27 05:26:15;;;;;;;7.47;6.28;;;7.60;99.90;;;;;;5007346;28;20264;-82
2023/04/27 05:28:42;;;;;;;5.25;4.13;;;7.80;99.90;;;;;;5032699;28;20204;-88
2023/04/27 05:31:10;;;;;;;11.95;5.18;;;7.90;99.90;;;;;;5035020;28;20193;-86
2023/04/27 05:33:37;;;;;;;14.43;5.75;;;8.00;99.90;;;;;;5045223;28;20283;-82
2023/04/27 05:36:04;;;;;;;12.15;5.63;;;8.20;99.90;;;;;;5028134;28;20249;-81
2023/04/27 05:38:40;;;;;;;8.77;5.55;;;8.30;99.90;;;;;;5032292;28;20205;-81
2023/04/27 05:41:07;;;;;;;6.50;5.35;;;8.60;99.90;;;;;;5041437;28;20212;-80
2023/04/27 05:43:34;;;;;;;10.05;5.25;;;9.90;99.90;;;;;;5022871;28;20214;-87
2023/04/27 05:46:04;;;;;;;9.50;5.60;;;8.60;99.90;;;;;;5007377;28;20218;-83
2023/04/27 05:48:31;;;;;;;14.65;6.40;;;9.20;99.90;;;;;;5026746;28;20392;-80
2023/04/27 05:51:00;;;;;;;10.10;6.53;;;9.80;99.90;;;;;;5026111;28;20279;-84
2023/04/27 05:53:29;;;;;;;9.70;5.45;;;10.20;99.90;;;;;;4996120;28;20210;-83
2023/04/27 05:55:59;;;;;;;9.07;4.90;;;9.00;99.90;;;;;;5027870;28;20226;-83
2023/04/27 05:58:26;;;;;;;9.18;5.15;;;8.90;99.90;;;;;;5020753;28;20206;-82
2023/04/27 06:00:56;;;;;;;8.52;5.20;;;8.80;99.90;;;;;;5003750;28;20227;-81
2023/04/27 06:03:22;;;;;;;7.63;4.97;;;8.90;99.90;;;;;;5002222;28;20216;-81
2023/04/27 06:05:54;;;;;;;8.25;3.88;;;8.90;99.90;;;;;;5021383;28;20201;-83
2023/04/27 06:08:26;;;;;;;8.88;5.00;;;8.80;99.90;;;;;;5011578;28;20195;-84
2023/04/27 06:10:53;;;;;;;8.35;4.22;;;8.90;99.90;;;;;;5015271;28;20292;-84
2023/04/27 06:13:23;;;;;;;8.77;6.22;;;9.00;99.90;;;;;;5019397;28;20209;-82
2023/04/27 06:15:50;;;;;;;6.10;5.05;;;9.00;99.90;;;;;;5019036;28;20234;-82
2023/04/27 06:18:17;;;;;;;6.45;5.10;;;9.90;99.90;;;;;;5021614;28;20222;-82
2023/04/27 06:20:49;;;;;;;7.88;4.75;;;9.20;99.90;;;;;;5025645;28;20199;-80
2023/04/27 06:23:17;;;;;;;7.70;4.30;;;9.70;99.90;;;;;;5010819;28;20423;-83
2023/04/27 06:25:44;;;;;;;15.50;5.30;;;9.20;99.90;;;;;;5024968;28;20243;-81
2023/04/27 06:28:11;;;;;;;8.68;5.45;;;9.40;99.90;;;;;;5042465;28;20556;-80
2023/04/27 06:30:38;;;;;;;4.18;3.78;;;9.70;99.90;;;;;;5022092;28;20797;-82
2023/04/27 06:33:05;;;;;;;5.40;4.05;;;10.20;99.90;;;;;;4988133;28;20207;-81
2023/04/27 06:35:33;;;;;;;4.50;4.05;;;10.90;99.90;;;;;;5021942;28;20248;-81
2023/04/27 06:37:59;;;;;;;11.18;4.72;;;10.90;99.90;;;;;;5028977;28;20192;-81
2023/04/27 06:40:27;;;;;;;5.00;3.85;;;11.30;99.90;;;;;;5031435;28;20272;-81
2023/04/27 06:42:54;;;;;;;7.40;5.65;;;11.90;99.90;;;;;;5023668;28;20208;-80
2023/04/27 06:45:21;;;;;;;5.72;4.30;;;12.40;99.90;;;;;;5029909;28;20208;-83
2023/04/27 06:47:48;;;;;;;5.70;4.18;;;13.60;99.90;;;;;;5019425;28;20205;-81
2023/04/27 06:50:16;;;;;;;8.13;4.18;;;14.00;99.90;;;;;;5020374;28;20215;-83
2023/04/27 06:52:43;;;;;;;4.63;4.20;;;14.00;99.90;;;;;;5016119;28;20205;-82
2023/04/27 06:55:12;;;;;;;5.13;4.40;;;14.10;99.90;;;;;;5022039;28;20275;-82
2023/04/27 06:57:39;;;;;;;7.90;3.63;;;14.70;99.90;;;;;;5024501;28;20447;-81
2023/04/27 07:00:06;;;;;;;4.88;3.38;;;15.20;99.90;;;;;;5019911;28;20304;-82
2023/04/27 07:02:33;;;;;;;4.40;3.93;;;15.50;99.90;;;;;;5028413;28;20285;-81
2023/04/27 07:05:02;;;;;;;3.83;3.50;;;16.80;99.90;;;;;;5032333;28;20449;-81
2023/04/27 07:07:28;;;;;;;7.43;3.93;;;17.00;99.90;;;;;;5008986;28;20497;-82
2023/04/27 07:09:55;;;;;;;4.47;3.50;;;17.80;99.90;;;;;;5026990;28;20443;-81
2023/04/27 07:12:22;;;;;;;8.23;5.57;;;18.10;99.90;;;;;;5022622;28;20576;-80
2023/04/27 07:14:49;;;;;;;7.30;3.83;;;18.30;99.90;;;;;;5023641;28;20509;-80
2023/04/27 07:17:16;;;;;;;3.93;3.63;;;19.00;98.50;;;;;;5008181;28;20474;-81
2023/04/27 07:19:44;;;;;;;8.73;4.43;;;19.10;96.30;;;;;;5023846;28;20417;-81
2023/04/27 07:22:11;;;;;;;6.43;4.13;;;19.20;98.00;;;;;;5029389;28;20507;-81
2023/04/27 07:24:42;;;;;;;9.47;3.43;;;18.40;99.90;;;;;;5007678;28;20741;-83
2023/04/27 07:27:13;;;;;;;6.83;3.40;;;17.30;98.40;;;;;;5022929;28;20429;-82
2023/04/27 07:29:41;;;;;;;7.90;3.23;;;16.20;99.90;;;;;;5024440;28;20755;-80
2023/04/27 07:32:08;;;;;;;6.17;3.30;;;15.40;99.90;;;;;;5025240;28;20501;-81
2023/04/27 07:34:35;;;;;;;3.47;3.07;;;15.20;99.90;;;;;;5030723;28;20456;-80
2023/04/27 07:37:18;;;;;;;11.03;3.87;;;15.90;99.90;;;;;;5023730;28;20630;-81
2023/04/27 07:39:46;;;;;;;4.07;3.60;;;16.30;99.90;;;;;;5027934;28;20479;-80
2023/04/27 07:42:12;;;;;;;3.53;3.20;;;16.80;99.90;;;;;;5023228;28;20507;-82
2023/04/27 07:44:39;;;;;;;6.00;5.40;;;16.90;99.90;;;;;;5027345;28;20442;-81
2023/04/27 07:47:07;;;;;;;3.10;2.80;;;18.90;99.90;;;;;;5018921;28;20474;-80
2023/04/27 07:49:36;;;;;;;3.33;2.57;;;20.10;94.70;;;;;;5001959;28;21085;-82
2023/04/27 07:52:03;;;;;;;5.60;3.50;;;20.70;91.00;;;;;;5029694;28;20416;-80
2023/04/27 07:54:30;;;;;;;9.60;3.20;;;20.40;90.30;;;;;;5031873;28;20456;-81
2023/04/27 07:56:57;;;;;;;4.90;3.17;;;20.70;87.90;;;;;;5030115;28;20613;-80
2023/04/27 07:59:27;;;;;;;11.30;3.43;;;20.30;87.20;;;;;;5025902;28;20408;-80
2023/04/27 08:01:54;;;;;;;3.83;2.80;;;20.30;84.00;;;;;;5022754;28;20488;-83
2023/04/27 08:04:41;;;;;;;6.77;3.43;;;20.20;82.40;;;;;;5028169;28;20452;-80
2023/04/27 08:07:09;;;;;;;3.30;2.33;;;19.50;83.40;;;;;;5031715;28;20431;-81
2023/04/27 08:09:36;;;;;;;2.73;2.50;;;19.20;83.90;;;;;;5031542;28;20608;-81
2023/04/27 08:12:04;;;;;;;8.27;3.03;;;18.90;87.20;;;;;;5027923;28;20815;-80
2023/04/27 08:14:34;;;;;;;7.60;3.20;;;18.90;88.60;;;;;;5023369;28;20453;-82
2023/04/27 08:17:01;;;;;;;3.50;2.80;;;18.40;89.70;;;;;;5003872;28;20439;-83
2023/04/27 08:19:28;;;;;;;3.10;2.90;;;17.80;92.90;;;;;;5023056;28;20418;-81
2023/04/27 08:21:55;;;;;;;4.37;3.77;;;18.10;92.70;;;;;;5024489;28;20475;-82
2023/04/27 08:24:24;;;;;;;6.17;5.10;;;18.20;91.90;;;;;;5028376;28;20455;-81
2023/04/27 08:26:51;;;;;;;4.03;2.60;;;17.40;92.80;;;;;;5033268;28;20427;-81
2023/04/27 08:29:18;;;;;;;7.80;2.87;;;17.60;93.70;;;;;;5030797;28;20440;-81
2023/04/27 08:31:58;;;;;;;5.60;3.83;;;17.80;93.10;;;;;;5020245;28;20413;-82
2023/04/27 08:34:26;;;;;;;19.57;4.47;;;18.40;91.60;;;;;;5009133;28;20471;-83
2023/04/27 08:36:53;;;;;;;4.30;3.00;;;18.50;93.60;;;;;;5027053;28;20686;-80
2023/04/27 08:39:20;;;;;;;13.20;3.30;;;18.90;91.50;;;;;;5028889;28;20454;-83
2023/04/27 08:41:49;;;;;;;7.77;3.67;;;19.00;90.20;;;;;;5022745;28;20444;-80
2023/04/27 08:44:17;;;;;;;4.63;3.10;;;19.30;90.40;;;;;;5023782;28;20625;-80
2023/04/27 08:46:43;;;;;;;4.90;3.80;;;19.60;88.60;;;;;;5029410;28;20638;-85
2023/04/27 08:49:10;;;;;;;4.20;2.70;;;19.40;88.70;;;;;;5022831;28;20792;-82
2023/04/27 08:51:42;;;;;;;5.20;3.20;;;18.30;91.40;;;;;;5029387;28;20556;-79
2023/04/27 08:54:09;;;;;;;4.57;4.17;;;17.90;92.20;;;;;;5021695;28;20505;-80
2023/04/27 08:56:37;;;;;;;7.07;3.30;;;17.90;91.80;;;;;;5030690;28;20487;-80
2023/04/27 08:59:13;;;;;;;6.57;3.67;;;17.80;91.30;;;;;;5028483;28;20431;-84
2023/04/27 09:01:47;;;;;;;4.30;3.80;;;18.30;90.30;;;;;;5014685;28;20469;-80
2023/04/27 09:04:16;;;;;;;3.93;3.60;;;20.20;84.60;;;;;;5034653;28;20422;-82
2023/04/27 09:06:44;;;;;;;5.10;3.23;;;20.40;81.60;;;;;;5033352;28;20491;-81
2023/04/27 09:09:22;;;;;;;7.03;3.60;;;20.80;80.10;;;;;;5030550;28;20428;-81
2023/04/27 09:11:49;;;;;;;5.60;3.17;;;19.60;81.20;;;;;;5034833;28;20428;-82
2023/04/27 09:14:17;;;;;;;3.77;2.80;;;19.70;82.10;;;;;;5024382;28;20448;-82
2023/04/27 09:16:45;;;;;;;4.03;3.63;;;18.20;86.90;;;;;;5029034;28;20849;-84
2023/04/27 09:19:23;;;;;;;5.30;3.63;;;17.90;91.10;;;;;;5026894;28;20487;-83
2023/04/27 09:22:06;;;;;;;3.07;2.47;;;19.10;85.00;;;;;;5020592;28;20500;-82
2023/04/27 09:24:33;;;;;;;3.40;3.10;;;17.80;87.60;;;;;;5019223;28;20768;-86
2023/04/27 09:27:03;;;;;;;4.67;2.80;;;17.50;87.90;;;;;;5026782;28;20446;-80
2023/04/27 09:29:35;;;;;;;3.40;3.10;;;17.40;89.40;;;;;;5027385;28;20417;-82
2023/04/27 09:32:14;;;;;;;2.90;2.70;;;17.30;90.90;;;;;;5020788;28;20436;-83
2023/04/27 09:34:42;;;;;;;6.97;3.37;;;16.80;90.70;;;;;;5007674;28;20438;-85
2023/04/27 09:37:15;;;;;;;13.63;3.80;;;16.40;92.70;;;;;;5021539;28;20536;-82
2023/04/27 09:39:42;;;;;;;5.40;4.53;;;16.40;94.30;;;;;;5024217;28;20439;-81
2023/04/27 09:42:11;;;;;;;7.70;3.10;;;16.00;93.40;;;;;;5037505;28;20634;-81
2023/04/27 09:44:38;;;;;;;5.53;2.60;;;15.80;95.40;;;;;;5038644;28;20430;-82
2023/04/27 09:47:06;;;;;;;3.27;3.00;;;15.80;94.20;;;;;;5049205;28;20503;-82
2023/04/27 09:49:33;;;;;;;2.67;2.33;;;16.00;92.90;;;;;;5032274;28;20456;-86
2023/04/27 09:52:01;;;;;;;2.57;2.37;;;15.70;94.20;;;;;;5030631;28;20455;-81
2023/04/27 09:54:32;;;;;;;8.07;2.73;;;15.50;94.30;;;;;;5028575;28;20454;-82
2023/04/27 09:57:11;;;;;;;4.70;4.03;;;15.30;95.70;;;;;;5024276;28;21002;-82
2023/04/27 10:00:13;;;;;;;5.77;4.17;;;15.30;97.40;;;;;;5028661;28;20468;-82
2023/04/27 10:03:12;;;;;;;8.47;3.60;;;15.70;97.40;;;;;;5028584;28;20495;-81
2023/04/27 10:05:57;;;;;;;5.53;3.50;;;16.60;95.50;;;;;;5023672;28;20445;-81
2023/04/27 10:08:25;;;;;;;3.77;3.23;;;16.70;94.10;;;;;;5031857;28;20431;-82
2023/04/27 10:10:53;;;;;;;4.63;4.23;;;16.50;93.20;;;;;;5011463;28;20439;-81
2023/04/27 10:13:21;;;;;;;3.20;2.90;;;16.10;95.20;;;;;;5048321;28;20438;-81
2023/04/27 10:15:48;;;;;;;4.57;3.50;;;16.10;96.20;;;;;;5047418;28;20485;-82
2023/04/27 10:18:26;;;;;;;4.60;3.90;;;16.00;96.00;;;;;;5037725;28;20457;-82
2023/04/27 10:20:53;;;;;;;5.20;4.60;;;15.80;97.60;;;;;;5052755;28;20430;-84
2023/04/27 10:23:26;;;;;;;4.30;3.60;;;16.10;96.60;;;;;;5056755;28;20433;-79
2023/04/27 10:26:06;;;;;;;5.63;3.97;;;15.70;98.70;;;;;;5057088;28;20428;-83
2023/04/27 10:28:38;;;;;;;8.23;4.20;;;15.90;99.40;;;;;;5028575;28;20434;-82
2023/04/27 10:31:10;;;;;;;4.97;4.53;;;15.80;99.90;;;;;;5040641;28;20413;-83
2023/04/27 10:33:45;;;;;;;7.30;4.80;;;15.80;99.90;;;;;;5031847;28;20492;-84
2023/04/27 10:36:14;;;;;;;6.87;6.17;;;15.90;99.90;;;;;;5037143;28;20488;-82
2023/04/27 10:38:42;;;;;;;6.53;4.00;;;16.30;98.30;;;;;;5027668;28;20428;-82
2023/04/27 10:41:13;;;;;;;10.27;4.50;;;16.60;97.40;;;;;;5034565;28;20469;-81
2023/04/27 10:43:40;;;;;;;11.57;4.37;;;17.40;96.30;;;;;;5030801;28;20685;-80
2023/04/27 10:46:12;;;;;;;6.93;4.13;;;17.00;96.20;;;;;;5032862;28;20442;-82
2023/04/27 10:48:40;;;;;;;4.27;3.90;;;17.00;94.20;;;;;;5020495;28;20435;-84
2023/04/27 10:51:07;;;;;;;4.47;4.07;;;16.80;95.00;;;;;;5022313;28;20443;-80
2023/04/27 10:53:36;;;;;;;6.03;4.10;;;16.40;94.10;;;;;;5027897;28;20421;-80
2023/04/27 10:56:10;;;;;;;3.70;3.37;;;16.00;94.20;;;;;;5013944;28;20480;-81
2023/04/27 10:58:37;;;;;;;3.10;2.80;;;15.60;93.60;;;;;;5025707;28;20430;-80
2023/04/27 11:01:09;;;;;;;3.13;2.83;;;15.10;92.80;;;;;;5023508;28;20434;-80
2023/04/27 11:03:36;;;;;;;4.10;3.33;;;14.70;92.80;;;;;;5019802;28;20474;-81
2023/04/27 11:06:04;;;;;;;3.57;3.23;;;15.00;93.90;;;;;;5026266;28;20470;-82
2023/04/27 11:08:32;;;;;;;4.90;4.40;;;14.20;94.70;;;;;;5021565;28;20473;-83
2023/04/27 11:11:00;;;;;;;7.93;4.67;;;14.30;96.70;;;;;;5027726;28;20443;-82
2023/04/27 11:13:27;;;;;;;8.05;5.13;;;14.20;96.40;;;;;;5031519;28;20439;-85
2023/04/27 11:15:57;;;;;;;9.40;4.72;;;14.00;98.50;;;;;;5023612;28;20259;-81
2023/04/27 11:18:30;;;;;;;5.50;4.90;;;13.90;99.40;;;;;;5036314;28;20508;-86
2023/04/27 11:21:12;;;;;;;5.20;4.50;;;13.80;99.70;;;;;;5023027;28;20209;-82
2023/04/27 11:23:39;;;;;;;4.55;4.07;;;13.60;99.90;;;;;;5013112;28;20201;-84
2023/04/27 11:26:09;;;;;;;10.32;4.78;;;13.40;99.90;;;;;;5020616;28;20223;-84
2023/04/27 11:28:37;;;;;;;5.50;5.05;;;13.40;99.90;;;;;;5029563;28;20223;-85
2023/04/27 11:31:06;;;;;;;7.47;3.90;;;13.20;99.90;;;;;;5015617;28;20224;-83
2023/04/27 11:33:33;;;;;;;4.72;4.13;;;13.60;99.90;;;;;;5021446;28;20209;-86
2023/04/27 11:36:02;;;;;;;5.05;3.72;;;13.40;99.90;;;;;;5028300;28;20591;-88
2023/04/27 11:38:32;;;;;;;3.75;3.20;;;13.20;99.90;;;;;;5030578;28;20196;-83
2023/04/27 11:41:04;;;;;;;8.43;3.10;;;13.60;99.60;;;;;;5024177;28;20200;-82
2023/04/27 11:43:32;;;;;;;7.00;4.47;;;13.40;98.60;;;;;;5020426;28;20466;-85
2023/04/27 11:46:03;;;;;;;3.97;3.45;;;13.10;99.90;;;;;;5019298;28;20216;-88
2023/04/27 11:48:30;;;;;;;3.83;3.20;;;13.10;99.90;;;;;;5009083;28;20204;-82
2023/04/27 11:51:00;;;;;;;5.05;3.83;;;12.90;99.90;;;;;;5019219;28;20205;-82
2023/04/27 11:53:38;;;;;;;5.15;3.88;;;12.70;99.90;;;;;;5033377;28;20201;-81
2023/04/27 11:56:09;;;;;;;6.05;3.78;;;12.00;99.90;;;;;;5030363;28;20224;-82
2023/04/27 11:58:37;;;;;;;6.82;4.05;;;11.90;99.90;;;;;;4998861;28;20205;-81
2023/04/27 12:01:06;;;;;;;6.97;3.88;;;12.90;99.90;;;;;;5032870;28;20209;-81
2023/04/27 12:03:33;;;;;;;8.27;4.60;;;13.50;99.90;;;;;;5018664;28;20197;-81
2023/04/27 12:06:02;;;;;;;6.70;4.53;;;14.10;99.90;;;;;;5024997;28;20205;-82
2023/04/27 12:08:50;;;;;;;6.03;4.30;;;14.50;99.90;;;;;;5011570;28;20280;-80
2023/04/27 12:11:17;;;;;;;5.78;4.30;;;14.40;99.90;;;;;;5019354;28;20213;-83
2023/04/27 12:13:45;;;;;;;8.18;4.15;;;14.30;99.90;;;;;;5024764;28;20210;-85
2023/04/27 12:16:12;;;;;;;4.05;3.63;;;13.90;99.90;;;;;;5006712;28;20472;-83
2023/04/27 12:18:39;;;;;;;5.07;4.15;;;13.80;99.90;;;;;;5019014;28;20209;-84
2023/04/27 12:21:06;;;;;;;4.88;4.45;;;14.10;99.90;;;;;;5016057;28;20262;-86
2023/04/27 12:23:34;;;;;;;5.70;4.53;;;14.30;99.90;;;;;;5020822;28;20227;-84
2023/04/27 12:26:01;;;;;;;4.77;4.10;;;14.90;99.90;;;;;;5032604;28;20997;-81
2023/04/27 12:28:29;;;;;;;5.97;5.10;;;14.90;99.90;;;;;;5007485;28;20446;-81
2023/04/27 12:30:56;;;;;;;9.07;5.33;;;14.70;99.90;;;;;;5033079;28;20449;-83
2023/04/27 12:33:24;;;;;;;5.33;4.53;;;15.10;99.90;;;;;;5020592;28;20457;-83
2023/04/27 12:35:51;;;;;;;5.30;4.70;;;15.30;99.90;;;;;;5025927;28;20446;-84
2023/04/27 12:38:21;;;;;;;5.67;4.43;;;15.50;99.90;;;;;;5026307;28;20797;-86
2023/04/27 12:40:48;;;;;;;4.13;3.73;;;15.80;97.60;;;;;;5033359;28;20420;-82
2023/04/27 12:43:15;;;;;;;7.33;4.47;;;15.60;95.60;;;;;;5019011;28;20446;-81
2023/04/27 12:45:42;;;;;;;6.93;4.57;;;15.70;94.60;;;;;;5017360;28;20451;-86
2023/04/27 12:48:08;;;;;;;5.13;3.53;;;15.80;94.90;;;;;;5020072;28;20447;-87
2023/04/27 12:50:38;;;;;;;5.20;3.40;;;15.70;92.40;;;;;;5015246;28;20509;-84
2023/04/27 12:53:06;;;;;;;6.50;3.87;;;15.40;92.70;;;;;;5035665;28;20435;-84
2023/04/27 12:55:40;;;;;;;3.63;3.23;;;15.60;91.50;;;;;;5032302;28;20436;-85